createdAt,value
2018-03-03T00:00:57.963Z,-2.10
2018-03-03T00:03:25.433Z,-2.10
2018-03-03T00:05:52.953Z,-2.20
2018-03-03T00:08:20.428Z,-2.20
2018-03-03T00:10:48.683Z,-2.30
2018-03-03T00:13:17.082Z,-2.40
2018-03-03T00:15:44.589Z,-2.40
2018-03-03T00:18:12.807Z,-2.40
2018-03-03T00:20:41.425Z,-2.50
2018-03-03T00:23:08.933Z,-2.40
2018-03-03T00:25:36.461Z,-2.30
2018-03-03T00:28:05.608Z,-2.30
2018-03-03T00:30:33.099Z,-2.30
2018-03-03T00:33:00.786Z,-2.30
2018-03-03T00:35:28.241Z,-2.30
2018-03-03T00:37:55.732Z,-2.30
2018-03-03T00:40:23.176Z,-2.20
2018-03-03T00:42:52.197Z,-2.30
2018-03-03T00:45:27.799Z,-2.30
2018-03-03T00:47:56.510Z,-2.40
2018-03-03T00:50:24.499Z,-2.40
2018-03-03T00:52:52.090Z,-2.50
2018-03-03T00:55:20.241Z,-2.50
2018-03-03T00:57:47.722Z,-2.50
2018-03-03T01:00:18.321Z,-2.50
2018-03-03T01:02:45.793Z,-2.50
2018-03-03T01:05:13.289Z,-2.50
2018-03-03T01:07:40.748Z,-2.40
2018-03-03T01:10:09.098Z,-2.40
2018-03-03T01:12:36.555Z,-2.30
2018-03-03T01:15:04.324Z,-2.30
2018-03-03T01:17:32.062Z,-2.30
2018-03-03T01:19:59.513Z,-2.30
2018-03-03T01:22:27.773Z,-2.30
2018-03-03T01:24:56.017Z,-2.30
2018-03-03T01:27:23.780Z,-2.40
2018-03-03T01:29:51.276Z,-2.40
2018-03-03T01:32:18.745Z,-2.40
2018-03-03T01:34:46.204Z,-2.40
2018-03-03T01:37:13.689Z,-2.40
2018-03-03T01:39:41.171Z,-2.50
2018-03-03T01:42:08.756Z,-2.50
2018-03-03T01:44:37.188Z,-2.40
2018-03-03T01:47:05.236Z,-2.40
2018-03-03T01:49:33.177Z,-2.40
2018-03-03T01:52:00.641Z,-2.40
2018-03-03T01:54:28.114Z,-2.40
2018-03-03T01:56:57.288Z,-2.30
2018-03-03T01:59:25.528Z,-2.30
2018-03-03T02:01:53.052Z,-2.30
2018-03-03T02:04:21.466Z,-2.20
2018-03-03T02:06:48.937Z,-2.20
2018-03-03T02:09:17.199Z,-2.00
2018-03-03T02:11:45.620Z,-2.10
2018-03-03T02:14:13.075Z,-2.10
2018-03-03T02:16:44.648Z,-2.20
2018-03-03T02:19:12.157Z,-2.30
2018-03-03T02:21:39.642Z,-2.30
2018-03-03T02:24:07.120Z,-2.40
2018-03-03T02:26:35.278Z,-2.50
2018-03-03T02:29:02.752Z,-2.50
2018-03-03T02:31:34.523Z,-2.50
2018-03-03T02:34:01.973Z,-2.50
2018-03-03T02:36:30.406Z,-2.50
2018-03-03T02:38:57.886Z,-2.60
2018-03-03T02:41:25.537Z,-2.60
2018-03-03T02:43:53.024Z,-2.60
2018-03-03T02:46:20.478Z,-2.60
2018-03-03T02:48:47.939Z,-2.60
2018-03-03T02:51:15.396Z,-2.60
2018-03-03T02:53:42.852Z,-2.50
2018-03-03T02:56:10.363Z,-2.50
2018-03-03T02:58:40.424Z,-2.50
2018-03-03T03:01:08.842Z,-2.50
2018-03-03T03:03:37.168Z,-2.60
2018-03-03T03:06:06.158Z,-2.60
2018-03-03T03:08:34.749Z,-2.60
2018-03-03T03:11:02.232Z,-2.60
2018-03-03T03:13:29.729Z,-2.60
2018-03-03T03:15:57.282Z,-2.60
2018-03-03T03:18:26.076Z,-2.40
2018-03-03T03:20:53.614Z,-2.40
2018-03-03T03:23:21.097Z,-2.40
2018-03-03T03:25:49.426Z,-2.40
2018-03-03T03:28:16.904Z,-2.40
2018-03-03T03:30:44.345Z,-2.40
2018-03-03T03:33:17.641Z,-2.40
2018-03-03T03:35:46.608Z,-2.50
2018-03-03T03:38:14.092Z,-2.50
2018-03-03T03:40:41.611Z,-2.50
2018-03-03T03:43:09.098Z,-2.40
2018-03-03T03:45:37.506Z,-2.40
2018-03-03T03:48:08.542Z,-2.40
2018-03-03T03:50:36.015Z,-2.30
2018-03-03T03:53:03.511Z,-2.30
2018-03-03T03:55:30.975Z,-2.30
2018-03-03T03:57:58.454Z,-2.30
2018-03-03T04:00:26.843Z,-2.30
2018-03-03T04:02:58.568Z,-2.40
2018-03-03T04:05:26.041Z,-2.30
2018-03-03T04:07:53.502Z,-2.30
2018-03-03T04:10:20.957Z,-2.30
2018-03-03T04:12:48.443Z,-2.30
2018-03-03T04:15:16.481Z,-2.30
2018-03-03T04:17:44.425Z,-2.30
2018-03-03T04:20:11.953Z,-2.30
2018-03-03T04:22:39.463Z,-2.30
2018-03-03T04:25:06.932Z,-2.30
2018-03-03T04:27:34.401Z,-2.20
2018-03-03T04:30:03.701Z,-2.30
2018-03-03T04:32:31.168Z,-2.30
2018-03-03T04:34:58.653Z,-2.40
2018-03-03T04:37:26.153Z,-2.40
2018-03-03T04:39:53.605Z,-2.40
2018-03-03T04:42:21.067Z,-2.40
2018-03-03T04:44:49.452Z,-2.40
2018-03-03T04:47:16.939Z,-2.40
2018-03-03T04:49:44.400Z,-2.30
2018-03-03T04:52:11.886Z,-2.40
2018-03-03T04:54:39.342Z,-2.30
2018-03-03T04:57:06.838Z,-2.30
2018-03-03T05:02:43.846Z,-2.30
2018-03-03T05:05:15.427Z,-2.30
2018-03-03T05:10:43.440Z,-2.30
2018-03-03T05:13:14.241Z,-2.40
2018-03-03T05:15:47.248Z,-2.40
2018-03-03T05:21:25.058Z,-2.40
2018-03-03T05:23:59.932Z,-2.30
2018-03-03T05:26:33.065Z,-2.30
2018-03-03T05:29:05.980Z,-2.30
2018-03-03T05:34:42.602Z,-2.30
2018-03-03T05:40:18.185Z,-2.30
2018-03-03T05:42:51.207Z,-2.30
2018-03-03T05:45:25.214Z,-2.30
2018-03-03T05:47:54.445Z,-2.30
2018-03-03T05:50:27.617Z,-2.30
2018-03-03T05:53:00.712Z,-2.30
2018-03-03T05:55:33.756Z,-2.30
2018-03-03T05:58:11.998Z,-2.30
2018-03-03T06:00:41.383Z,-2.20
2018-03-03T06:06:19.737Z,-2.20
2018-03-03T06:08:53.112Z,-2.10
2018-03-03T06:11:22.248Z,-2.10
2018-03-03T06:13:50.502Z,-2.10
2018-03-03T06:16:18.463Z,-2.10
2018-03-03T06:18:46.839Z,-2.10
2018-03-03T06:21:14.957Z,-2.10
2018-03-03T06:23:42.413Z,-2.10
2018-03-03T06:26:09.884Z,-2.10
2018-03-03T06:28:37.326Z,-2.10
2018-03-03T06:31:05.010Z,-2.00
2018-03-03T06:33:32.552Z,-1.80
2018-03-03T06:36:03.761Z,-1.70
2018-03-03T06:38:31.239Z,-1.60
2018-03-03T06:40:59.021Z,-1.60
2018-03-03T06:43:26.464Z,-1.50
2018-03-03T06:45:54.052Z,-1.40
2018-03-03T06:48:21.492Z,-1.40
2018-03-03T06:50:53.716Z,-1.40
2018-03-03T06:53:21.234Z,-1.40
2018-03-03T06:55:48.847Z,-1.40
2018-03-03T06:58:17.101Z,-1.30
2018-03-03T07:00:45.676Z,-1.30
2018-03-03T07:03:13.135Z,-1.30
2018-03-03T07:05:43.620Z,-1.30
2018-03-03T07:08:11.058Z,-1.20
2018-03-03T07:10:38.538Z,-1.20
2018-03-03T07:13:05.988Z,-1.10
2018-03-03T07:15:35.157Z,-1.00
2018-03-03T07:18:03.412Z,-0.90
2018-03-03T07:20:30.876Z,-0.90
2018-03-03T07:22:58.351Z,-0.80
2018-03-03T07:25:27.319Z,-0.50
2018-03-03T07:27:54.791Z,-0.50
2018-03-03T07:30:22.751Z,-0.30
2018-03-03T07:32:50.258Z,-0.20
2018-03-03T07:35:18.417Z,-0.10
2018-03-03T07:37:46.136Z,0.00
2018-03-03T07:40:13.812Z,0.00
2018-03-03T07:42:41.310Z,0.00
2018-03-03T07:45:08.736Z,0.10
2018-03-03T07:47:36.182Z,0.00
2018-03-03T07:50:04.188Z,0.10
2018-03-03T07:52:32.366Z,0.10
2018-03-03T07:54:59.806Z,0.10
2018-03-03T07:57:28.053Z,0.20
2018-03-03T07:59:55.510Z,0.20
2018-03-03T08:02:23.172Z,0.20
2018-03-03T08:04:51.554Z,0.30
2018-03-03T08:07:19.013Z,0.30
2018-03-03T08:09:48.005Z,0.50
2018-03-03T08:12:16.002Z,0.50
2018-03-03T08:14:43.475Z,0.60
2018-03-03T08:17:10.950Z,0.70
2018-03-03T08:19:38.420Z,0.90
2018-03-03T08:22:05.864Z,1.10
2018-03-03T08:24:33.651Z,1.30
2018-03-03T08:27:01.094Z,1.40
2018-03-03T08:29:28.605Z,1.30
2018-03-03T08:31:56.041Z,1.20
2018-03-03T08:34:23.554Z,1.10
2018-03-03T08:36:51.262Z,1.20
2018-03-03T08:39:19.862Z,1.40
2018-03-03T08:41:47.304Z,1.40
2018-03-03T08:44:14.792Z,1.60
2018-03-03T08:46:42.237Z,1.90
2018-03-03T08:49:09.700Z,2.20
2018-03-03T08:51:38.855Z,2.40
2018-03-03T08:54:06.490Z,2.40
2018-03-03T08:56:33.949Z,2.60
2018-03-03T08:59:01.401Z,2.70
2018-03-03T09:01:28.856Z,2.70
2018-03-03T09:03:58.057Z,2.80
2018-03-03T09:06:25.585Z,2.80
2018-03-03T09:08:53.105Z,2.80
2018-03-03T09:11:20.571Z,2.70
2018-03-03T09:13:48.041Z,2.70
2018-03-03T09:16:15.951Z,2.70
2018-03-03T09:18:43.422Z,2.80
2018-03-03T09:21:10.928Z,2.90
2018-03-03T09:23:42.170Z,3.10
2018-03-03T09:26:09.787Z,3.10
2018-03-03T09:28:37.270Z,3.20
2018-03-03T09:31:04.794Z,3.30
2018-03-03T09:33:32.228Z,3.40
2018-03-03T09:36:00.468Z,3.40
2018-03-03T09:38:31.831Z,3.20
2018-03-03T09:40:59.272Z,3.00
2018-03-03T09:43:26.721Z,2.90
2018-03-03T09:45:54.491Z,2.80
2018-03-03T09:48:21.950Z,2.80
2018-03-03T09:50:49.901Z,2.60
2018-03-03T09:53:17.476Z,2.70
2018-03-03T09:55:44.934Z,2.70
2018-03-03T09:58:12.402Z,2.70
2018-03-03T10:00:39.857Z,2.90
2018-03-03T10:03:09.803Z,3.40
2018-03-03T10:05:37.247Z,3.40
2018-03-03T10:08:04.965Z,3.80
2018-03-03T10:10:32.440Z,3.80
2018-03-03T10:12:59.896Z,3.90
2018-03-03T10:15:28.472Z,4.00
2018-03-03T10:17:55.949Z,3.80
2018-03-03T10:20:23.394Z,3.70
2018-03-03T10:22:51.630Z,3.50
2018-03-03T10:25:19.153Z,3.40
2018-03-03T10:27:48.288Z,3.40
2018-03-03T10:30:15.740Z,3.40
2018-03-03T10:32:43.513Z,3.50
2018-03-03T10:35:10.988Z,3.60
2018-03-03T10:37:38.432Z,3.60
2018-03-03T10:40:11.130Z,3.70
2018-03-03T10:42:40.063Z,3.70
2018-03-03T10:45:07.532Z,3.80
2018-03-03T10:47:35.602Z,4.10
2018-03-03T10:50:03.076Z,4.10
2018-03-03T10:52:30.537Z,3.90
2018-03-03T10:54:58.001Z,3.60
2018-03-03T10:57:26.382Z,3.60
2018-03-03T10:59:53.894Z,3.80
2018-03-03T11:02:21.332Z,3.80
2018-03-03T11:04:48.821Z,3.80
2018-03-03T11:07:16.465Z,3.80
2018-03-03T11:09:43.908Z,3.90
2018-03-03T11:12:11.512Z,4.10
2018-03-03T11:14:38.977Z,4.40
2018-03-03T11:17:06.525Z,4.30
2018-03-03T11:19:34.136Z,4.10
2018-03-03T11:22:01.625Z,4.00
2018-03-03T11:24:29.368Z,3.60
2018-03-03T11:27:00.503Z,3.40
2018-03-03T11:29:30.387Z,3.40
2018-03-03T11:31:57.899Z,3.40
2018-03-03T11:34:26.166Z,3.90
2018-03-03T11:36:54.625Z,3.90
2018-03-03T11:39:22.384Z,4.40
2018-03-03T11:41:49.832Z,4.70
2018-03-03T11:44:17.317Z,4.80
2018-03-03T11:46:44.759Z,4.70
2018-03-03T11:49:12.235Z,4.40
2018-03-03T11:51:39.765Z,4.10
2018-03-03T11:54:07.232Z,4.20
2018-03-03T11:56:45.969Z,4.40
2018-03-03T11:59:13.428Z,4.80
2018-03-03T12:01:40.877Z,5.00
2018-03-03T12:04:09.469Z,5.20
2018-03-03T12:06:37.941Z,5.40
2018-03-03T12:09:05.399Z,5.40
2018-03-03T12:11:33.794Z,5.00
2018-03-03T12:14:01.288Z,4.70
2018-03-03T12:16:29.037Z,5.00
2018-03-03T12:18:56.593Z,5.10
2018-03-03T12:21:24.096Z,5.20
2018-03-03T12:23:51.563Z,5.30
2018-03-03T12:26:19.026Z,5.00
2018-03-03T12:28:46.489Z,4.90
2018-03-03T12:31:13.933Z,4.90
2018-03-03T12:33:42.332Z,5.00
2018-03-03T12:36:09.781Z,4.90
2018-03-03T12:38:37.249Z,4.60
2018-03-03T12:41:04.724Z,4.70
2018-03-03T12:43:32.164Z,5.00
2018-03-03T12:45:59.628Z,5.20
2018-03-03T12:48:27.112Z,5.40
2018-03-03T12:50:54.553Z,5.50
2018-03-03T12:53:21.988Z,5.30
2018-03-03T12:55:50.358Z,5.10
2018-03-03T12:58:17.847Z,4.80
2018-03-03T13:00:45.329Z,4.80
2018-03-03T13:03:12.808Z,4.90
2018-03-03T13:05:40.292Z,5.20
2018-03-03T13:08:08.029Z,5.40
2018-03-03T13:10:35.480Z,5.50
2018-03-03T13:13:06.876Z,5.50
2018-03-03T13:15:34.364Z,5.50
2018-03-03T13:18:01.864Z,5.40
2018-03-03T13:20:29.315Z,5.20
2018-03-03T13:22:57.090Z,5.10
2018-03-03T13:25:26.060Z,4.90
2018-03-03T13:27:53.504Z,4.80
2018-03-03T13:30:21.289Z,4.70
2018-03-03T13:32:48.729Z,4.70
2018-03-03T13:35:16.171Z,4.70
2018-03-03T13:37:43.760Z,4.50
2018-03-03T13:40:11.250Z,4.30
2018-03-03T13:42:43.808Z,4.50
2018-03-03T13:45:11.248Z,4.50
2018-03-03T13:47:38.702Z,4.80
2018-03-03T13:50:06.192Z,5.10
2018-03-03T13:52:33.814Z,5.40
2018-03-03T13:55:02.081Z,5.70
2018-03-03T13:57:29.523Z,5.80
2018-03-03T13:59:56.996Z,5.60
2018-03-03T14:02:24.698Z,5.50
2018-03-03T14:04:52.436Z,5.40
2018-03-03T14:07:20.081Z,5.60
2018-03-03T14:09:47.688Z,5.60
2018-03-03T14:12:15.446Z,5.50
2018-03-03T14:14:42.929Z,5.30
2018-03-03T14:17:10.568Z,5.40
2018-03-03T14:19:38.081Z,5.50
2018-03-03T14:22:05.737Z,5.50
2018-03-03T14:24:33.169Z,5.20
2018-03-03T14:27:01.435Z,4.70
2018-03-03T14:29:29.704Z,4.70
2018-03-03T14:31:57.189Z,4.80
2018-03-03T14:34:24.635Z,4.70
2018-03-03T14:36:52.100Z,4.70
2018-03-03T14:39:19.555Z,4.60
2018-03-03T14:41:47.033Z,4.60
2018-03-03T14:44:14.552Z,4.60
2018-03-03T14:46:43.737Z,4.60
2018-03-03T14:49:11.208Z,4.60
2018-03-03T14:51:38.648Z,4.50
2018-03-03T14:54:06.128Z,4.50
2018-03-03T14:56:34.375Z,4.60
2018-03-03T14:59:06.325Z,4.50
2018-03-03T15:01:33.792Z,4.50
2018-03-03T15:04:03.668Z,4.10
2018-03-03T15:06:31.148Z,4.10
2018-03-03T15:08:58.633Z,4.10
2018-03-03T15:11:26.076Z,4.10
2018-03-03T15:13:57.828Z,4.30
2018-03-03T15:16:25.293Z,4.30
2018-03-03T15:18:52.746Z,4.40
2018-03-03T15:21:20.225Z,4.50
2018-03-03T15:23:48.596Z,4.20
2018-03-03T15:26:16.697Z,4.20
2018-03-03T15:28:44.166Z,4.10
2018-03-03T15:31:11.638Z,4.00
2018-03-03T15:33:39.101Z,4.00
2018-03-03T15:36:06.544Z,3.90
2018-03-03T15:38:34.008Z,3.80
2018-03-03T15:41:01.458Z,3.70
2018-03-03T15:43:29.045Z,3.50
2018-03-03T15:45:56.489Z,3.40
2018-03-03T15:48:24.066Z,3.40
2018-03-03T15:50:51.666Z,3.40
2018-03-03T15:53:19.892Z,3.40
2018-03-03T15:55:47.364Z,3.30
2018-03-03T15:58:15.377Z,3.10
2018-03-03T16:00:42.820Z,3.10
2018-03-03T16:03:10.309Z,3.10
2018-03-03T16:05:39.444Z,3.10
2018-03-03T16:08:06.917Z,3.00
2018-03-03T16:10:34.389Z,3.10
2018-03-03T16:13:02.375Z,3.00
2018-03-03T16:15:33.164Z,2.90
2018-03-03T16:18:00.700Z,2.90
2018-03-03T16:20:28.420Z,2.80
2018-03-03T16:22:55.889Z,2.80
2018-03-03T16:25:23.325Z,2.70
2018-03-03T16:27:50.780Z,2.80
2018-03-03T16:30:22.221Z,2.50
2018-03-03T16:32:49.687Z,2.40
2018-03-03T16:35:17.836Z,2.30
2018-03-03T16:37:45.413Z,2.20
2018-03-03T16:40:13.664Z,2.10
2018-03-03T16:42:41.116Z,2.00
2018-03-03T16:45:08.600Z,2.00
2018-03-03T16:47:36.777Z,2.00
2018-03-03T16:50:04.229Z,2.00
2018-03-03T16:52:31.700Z,1.90
2018-03-03T16:54:59.940Z,1.50
2018-03-03T16:57:27.425Z,1.50
2018-03-03T16:59:54.902Z,1.40
2018-03-03T17:02:23.133Z,1.20
2018-03-03T17:04:51.528Z,1.10
2018-03-03T17:07:18.984Z,1.10
2018-03-03T17:09:46.428Z,1.10
2018-03-03T17:12:13.920Z,1.00
2018-03-03T17:14:41.647Z,0.90
2018-03-03T17:17:09.752Z,0.80
2018-03-03T17:19:37.208Z,0.70
2018-03-03T17:22:04.679Z,0.70
2018-03-03T17:24:32.506Z,0.60
2018-03-03T17:26:59.948Z,0.50
2018-03-03T17:29:27.648Z,0.40
2018-03-03T17:31:55.121Z,0.40
2018-03-03T17:34:22.604Z,0.40
2018-03-03T17:36:50.072Z,0.30
2018-03-03T17:39:18.540Z,0.30
2018-03-03T17:41:46.021Z,0.30
2018-03-03T17:44:13.499Z,0.10
2018-03-03T17:46:40.955Z,0.00
2018-03-03T17:49:08.397Z,0.10
2018-03-03T17:51:35.860Z,0.00
2018-03-03T17:54:03.306Z,0.00
2018-03-03T17:56:31.696Z,0.00
2018-03-03T17:58:59.169Z,0.10
2018-03-03T18:01:26.613Z,0.00
2018-03-03T18:03:54.823Z,-0.20
2018-03-03T18:06:22.305Z,-0.20
2018-03-03T18:08:49.746Z,-0.20
2018-03-03T18:11:17.217Z,-0.30
2018-03-03T18:13:44.663Z,-0.40
2018-03-03T18:16:12.147Z,-0.50
2018-03-03T18:18:40.364Z,-0.50
2018-03-03T18:21:07.818Z,-0.50
2018-03-03T18:23:35.280Z,-0.50
2018-03-03T18:26:02.765Z,-0.50
2018-03-03T18:28:30.445Z,-0.60
2018-03-03T18:30:59.892Z,-0.80
2018-03-03T18:33:31.340Z,-0.80
2018-03-03T18:35:58.829Z,-0.90
2018-03-03T18:38:26.297Z,-1.00
2018-03-03T18:40:55.261Z,-1.00
2018-03-03T18:43:23.867Z,-1.00
2018-03-03T18:45:51.414Z,-1.00
2018-03-03T18:48:22.840Z,-1.10
2018-03-03T18:50:51.837Z,-1.10
2018-03-03T18:53:20.466Z,-1.10
2018-03-03T18:55:47.927Z,-1.10
2018-03-03T18:58:15.463Z,-1.20
2018-03-03T19:00:42.965Z,-1.20
2018-03-03T19:03:14.565Z,-1.20
2018-03-03T19:05:42.032Z,-1.10
2018-03-03T19:08:09.480Z,-1.10
2018-03-03T19:10:36.966Z,-1.20
2018-03-03T19:13:07.443Z,-1.30
2018-03-03T19:15:34.881Z,-1.40
2018-03-03T19:18:05.841Z,-1.40
2018-03-03T19:20:33.297Z,-1.30
2018-03-03T19:23:02.278Z,-1.30
2018-03-03T19:25:29.725Z,-1.30
2018-03-03T19:27:57.196Z,-1.20
2018-03-03T19:30:24.695Z,-1.00
2018-03-03T19:32:52.415Z,-1.00
2018-03-03T19:35:19.914Z,-0.90
2018-03-03T19:37:47.993Z,-0.80
2018-03-03T19:40:15.704Z,-0.80
2018-03-03T19:42:43.153Z,-0.70
2018-03-03T19:45:10.702Z,-0.90
2018-03-03T19:47:38.359Z,-1.00
2018-03-03T19:50:05.813Z,-1.00
2018-03-03T19:52:33.287Z,-0.90
2018-03-03T19:55:00.763Z,-0.90
2018-03-03T19:57:28.219Z,-0.80
2018-03-03T19:59:56.629Z,-0.90
2018-03-03T20:02:24.092Z,-0.90
2018-03-03T20:04:51.613Z,-0.80
2018-03-03T20:07:19.062Z,-0.90
2018-03-03T20:09:46.734Z,-1.00
2018-03-03T20:12:14.405Z,-1.10
2018-03-03T20:14:42.809Z,-1.20
2018-03-03T20:17:10.256Z,-1.20
2018-03-03T20:19:37.726Z,-1.20
2018-03-03T20:22:05.168Z,-1.30
2018-03-03T20:24:32.645Z,-1.30
2018-03-03T20:27:00.122Z,-1.20
2018-03-03T20:29:27.577Z,-1.20
2018-03-03T20:31:55.049Z,-1.00
2018-03-03T20:34:26.239Z,-1.10
2018-03-03T20:36:54.170Z,-1.00
2018-03-03T20:39:21.608Z,-0.90
2018-03-03T20:41:49.126Z,-0.80
2018-03-03T20:44:16.653Z,-0.70
2018-03-03T20:46:44.096Z,-0.80
2018-03-03T20:49:11.557Z,-0.80
2018-03-03T20:51:39.090Z,-0.70
2018-03-03T20:54:06.578Z,-0.70
2018-03-03T20:56:34.021Z,-0.80
2018-03-03T20:59:01.510Z,-0.70
2018-03-03T21:01:28.971Z,-0.70
2018-03-03T21:03:56.429Z,-0.60
2018-03-03T21:06:23.997Z,-0.50
2018-03-03T21:08:51.864Z,-0.30
2018-03-03T21:11:30.051Z,-0.20
2018-03-03T21:13:58.460Z,-0.20
2018-03-03T21:16:26.649Z,-0.10
2018-03-03T21:18:54.178Z,0.00
2018-03-03T21:21:22.263Z,0.20
2018-03-03T21:23:50.476Z,0.20
2018-03-03T21:26:17.976Z,0.20
2018-03-03T21:28:45.456Z,0.20
2018-03-03T21:31:13.674Z,0.30
2018-03-03T21:33:41.856Z,0.20
2018-03-03T21:36:09.584Z,0.30
2018-03-03T21:38:36.977Z,0.30
2018-03-03T21:41:04.512Z,0.50
2018-03-03T21:43:31.964Z,0.50
2018-03-03T21:45:59.668Z,0.50
2018-03-03T21:48:27.114Z,0.50
2018-03-03T21:50:54.585Z,0.50
2018-03-03T21:53:25.408Z,0.60
2018-03-03T21:55:52.867Z,0.60
2018-03-03T21:58:21.252Z,0.60
2018-03-03T22:00:49.022Z,0.60
2018-03-03T22:03:16.525Z,0.60
2018-03-03T22:05:43.970Z,0.60
2018-03-03T22:08:11.449Z,0.60
2018-03-03T22:10:39.014Z,0.60
2018-03-03T22:13:06.453Z,0.50
2018-03-03T22:15:34.611Z,0.50
2018-03-03T22:18:02.057Z,0.40
2018-03-03T22:20:29.530Z,0.40
2018-03-03T22:22:57.037Z,0.50
2018-03-03T22:25:24.493Z,0.40
2018-03-03T22:27:51.960Z,0.50
2018-03-03T22:30:19.400Z,0.60
2018-03-03T22:32:46.871Z,0.70
2018-03-03T22:35:14.308Z,0.70
2018-03-03T22:37:42.480Z,0.70
2018-03-03T22:40:09.950Z,0.70
2018-03-03T22:42:37.412Z,0.60
2018-03-03T22:45:04.894Z,0.60
2018-03-03T22:47:32.324Z,0.50
2018-03-03T22:49:59.813Z,0.40
2018-03-03T22:52:27.261Z,0.50
2018-03-03T22:54:54.703Z,0.50
2018-03-03T22:57:22.329Z,0.60
2018-03-03T22:59:50.710Z,0.70
2018-03-03T23:02:18.216Z,0.70
2018-03-03T23:04:45.688Z,0.70
2018-03-03T23:07:13.309Z,0.80
2018-03-03T23:09:40.776Z,0.70
2018-03-03T23:12:08.255Z,0.60
2018-03-03T23:14:35.725Z,0.60
2018-03-03T23:17:03.192Z,0.50
2018-03-03T23:19:31.412Z,0.60
2018-03-03T23:22:06.389Z,0.60
2018-03-03T23:24:33.828Z,0.60
2018-03-03T23:27:02.165Z,0.70
2018-03-03T23:29:29.800Z,0.70
2018-03-03T23:31:57.378Z,0.80
2018-03-03T23:34:24.873Z,0.90
2018-03-03T23:36:52.312Z,0.90
2018-03-03T23:39:20.068Z,0.90
2018-03-03T23:41:47.553Z,0.90
2018-03-03T23:44:14.992Z,0.90
2018-03-03T23:46:44.427Z,1.00
2018-03-03T23:49:11.923Z,0.90
2018-03-03T23:51:39.393Z,1.00
2018-03-03T23:54:06.997Z,0.90
2018-03-03T23:56:34.468Z,1.00
2018-03-03T23:59:02.376Z,0.90
